Time;durP1;ratioP1;P1;durP2;ratioP2;P2;SDS_P1;SDS_P2;PMS_P1;PMS_P2;Temp;Humidity;BMP_temperature;BMP_pressure;BME280_temperature;BME280_humidity;BME280_pressure;Samples;Min_cycle;Max_cycle;Signal;HPM_P1;HPM_P2
2022/12/06 00:01:33;;;;;;;5.38;3.47;;;9.50;99.90;;;;;;5111894;28;20020;-52
2022/12/06 00:04:04;;;;;;;5.75;3.65;;;9.40;99.90;;;;;;5111927;28;20032;-52
2022/12/06 00:06:32;;;;;;;6.18;3.78;;;9.50;99.90;;;;;;5111927;28;20300;-52
2022/12/06 00:08:59;;;;;;;6.68;3.60;;;9.60;99.90;;;;;;5111267;28;20088;-53
2022/12/06 00:11:27;;;;;;;4.90;3.15;;;9.70;99.90;;;;;;5111758;28;20030;-54
2022/12/06 00:13:55;;;;;;;5.00;3.30;;;9.80;99.90;;;;;;5111553;28;20046;-52
2022/12/06 00:16:22;;;;;;;5.05;3.17;;;9.80;99.90;;;;;;5111622;28;20111;-52
2022/12/06 00:18:48;;;;;;;5.82;3.30;;;9.80;99.90;;;;;;5111142;28;20026;-53
2022/12/06 00:21:20;;;;;;;6.53;3.47;;;9.90;99.90;;;;;;5110304;28;20031;-52
2022/12/06 00:23:49;;;;;;;4.70;3.10;;;9.90;99.90;;;;;;5111557;28;20107;-52
2022/12/06 00:26:16;;;;;;;4.57;3.22;;;9.80;99.90;;;;;;5111418;28;20038;-56
2022/12/06 00:28:42;;;;;;;3.92;2.80;;;9.80;99.90;;;;;;5110910;28;20544;-54
2022/12/06 00:31:11;;;;;;;4.35;2.83;;;9.80;99.90;;;;;;5111444;28;20028;-53
2022/12/06 00:33:37;;;;;;;4.55;2.88;;;9.70;99.90;;;;;;5111524;28;20015;-53
2022/12/06 00:36:05;;;;;;;4.35;2.95;;;9.70;99.90;;;;;;5111399;28;20496;-52
2022/12/06 00:38:33;;;;;;;5.18;3.15;;;9.70;99.90;;;;;;5109616;28;20020;-52
2022/12/06 00:41:03;;;;;;;3.67;2.78;;;9.70;99.90;;;;;;5111604;28;20038;-53
2022/12/06 00:43:30;;;;;;;3.53;2.70;;;9.60;99.90;;;;;;5111330;28;20023;-52
2022/12/06 00:45:56;;;;;;;3.63;2.55;;;9.60;99.90;;;;;;5111446;28;20023;-56
2022/12/06 00:48:22;;;;;;;4.53;2.53;;;9.60;99.90;;;;;;5113430;28;20381;-53
2022/12/06 00:50:48;;;;;;;4.15;2.72;;;9.60;99.90;;;;;;5115578;28;20039;-54
2022/12/06 00:53:13;;;;;;;3.25;2.53;;;9.50;99.90;;;;;;5115643;28;20024;-52
2022/12/06 00:55:39;;;;;;;4.40;2.92;;;9.50;99.90;;;;;;5115353;28;20024;-56
2022/12/06 00:58:05;;;;;;;3.65;2.33;;;9.50;99.90;;;;;;5114841;28;20385;-57
2022/12/06 01:00:30;;;;;;;3.50;2.50;;;9.50;99.90;;;;;;5115512;28;20362;-55
2022/12/06 01:03:00;;;;;;;4.78;3.13;;;9.50;99.90;;;;;;5115318;28;20031;-53
2022/12/06 01:29:00;;;;;;;3.22;2.40;;;9.80;99.90;;;;;;5114359;28;20076;-57
2022/12/06 01:31:27;;;;;;;3.42;2.38;;;9.70;99.90;;;;;;5114735;28;20435;-51
2022/12/06 01:33:53;;;;;;;3.60;2.58;;;9.70;99.90;;;;;;5114689;28;20016;-51
2022/12/06 01:36:21;;;;;;;3.47;2.30;;;9.60;99.90;;;;;;5113351;27;20602;-51
2022/12/06 01:38:51;;;;;;;3.53;2.08;;;9.60;99.90;;;;;;5114081;28;20032;-51
2022/12/06 01:41:17;;;;;;;3.45;2.70;;;9.60;99.90;;;;;;5113272;28;20042;-52
2022/12/06 01:43:44;;;;;;;3.20;2.17;;;9.50;99.90;;;;;;5113317;28;20084;-52
2022/12/06 01:46:37;;;;;;;4.63;2.55;;;9.50;99.90;;;;;;5113235;28;20488;-51
2022/12/06 01:49:12;;;;;;;3.65;2.55;;;9.50;99.90;;;;;;5112733;28;20084;-51
2022/12/06 01:51:53;;;;;;;4.95;2.53;;;9.40;99.90;;;;;;5111864;28;20031;-52
2022/12/06 02:55:42;;;;;;;3.13;1.92;;;9.40;99.90;;;;;;5113010;28;20035;-53
2022/12/06 02:58:08;;;;;;;3.10;2.17;;;9.30;99.90;;;;;;5112517;28;20212;-53
2022/12/06 03:00:38;;;;;;;3.50;2.13;;;9.30;99.90;;;;;;5112924;27;20028;-52
2022/12/06 03:03:35;;;;;;;3.13;2.42;;;9.30;99.90;;;;;;5113311;28;20030;-51
2022/12/06 03:06:01;;;;;;;3.42;2.33;;;9.30;99.90;;;;;;5112912;28;20524;-52
2022/12/06 03:08:48;;;;;;;3.95;2.20;;;9.40;99.90;;;;;;5112854;28;20051;-51
2022/12/06 03:11:14;;;;;;;2.95;2.08;;;9.50;99.90;;;;;;5111983;27;20076;-54
2022/12/06 03:13:53;;;;;;;2.55;2.00;;;9.60;99.90;;;;;;5112827;28;20038;-52
2022/12/06 03:16:29;;;;;;;2.78;1.92;;;9.70;99.90;;;;;;5112741;28;20569;-51
2022/12/06 03:19:04;;;;;;;3.47;2.20;;;9.70;99.90;;;;;;5112338;28;20023;-51
2022/12/06 03:21:37;;;;;;;2.63;2.05;;;9.70;99.90;;;;;;5111613;28;20020;-51
2022/12/06 03:24:08;;;;;;;3.17;2.30;;;9.70;99.90;;;;;;5113027;28;20027;-53
2022/12/06 03:26:35;;;;;;;3.78;2.13;;;9.60;99.90;;;;;;5112537;28;20015;-51
2022/12/06 03:29:04;;;;;;;2.78;2.22;;;9.60;99.90;;;;;;5112304;28;20063;-52
2022/12/06 03:31:32;;;;;;;3.50;1.95;;;9.50;99.90;;;;;;5112399;28;20035;-51
2022/12/06 03:34:26;;;;;;;2.72;2.00;;;9.50;99.90;;;;;;5112876;28;20020;-51
2022/12/06 03:36:53;;;;;;;2.67;1.85;;;9.50;99.90;;;;;;5110334;28;20040;-53
2022/12/06 03:39:34;;;;;;;2.20;1.80;;;9.50;99.90;;;;;;5111586;28;20047;-51
2022/12/06 03:42:01;;;;;;;3.70;2.17;;;9.50;99.90;;;;;;5112274;28;20019;-52
2022/12/06 03:44:27;;;;;;;3.15;1.92;;;9.40;99.90;;;;;;5112118;28;20394;-52
2022/12/06 03:47:22;;;;;;;2.95;1.95;;;9.40;99.90;;;;;;5112081;28;20055;-51
2022/12/06 03:49:57;;;;;;;;;;;9.40;99.90;;;;;;5110822;28;20075;-53
2022/12/06 03:52:24;;;;;;;2.92;1.80;;;9.40;99.90;;;;;;5112102;28;20002;-55
2022/12/06 03:54:49;;;;;;;3.38;2.00;;;9.30;99.90;;;;;;5110616;28;20742;-53
2022/12/06 03:57:15;;;;;;;3.17;2.05;;;9.30;99.90;;;;;;5111851;28;20059;-54
2022/12/06 03:59:40;;;;;;;3.22;1.80;;;9.30;99.90;;;;;;5110162;28;20023;-52
2022/12/06 04:02:06;;;;;;;2.35;1.85;;;9.30;99.90;;;;;;5111900;28;20031;-52
2022/12/06 04:04:32;;;;;;;2.25;1.73;;;9.20;99.90;;;;;;5111863;28;20036;-51
2022/12/06 04:06:58;;;;;;;2.75;1.88;;;9.30;99.90;;;;;;5111724;28;20026;-51
2022/12/06 04:12:59;;;;;;;2.70;2.03;;;9.50;99.90;;;;;;5111883;28;20072;-51
2022/12/06 04:14:53;;;;;;;2.55;1.80;;;9.60;99.90;;;;;;5111581;28;20126;-51
2022/12/06 04:20:04;;;;;;;5.38;2.25;;;9.60;99.90;;;;;;5111265;28;20116;-51
2022/12/06 04:25:14;;;;;;;3.22;2.00;;;9.60;99.90;;;;;;5111635;28;20030;-52
2022/12/06 04:38:40;;;;;;;2.75;2.08;;;9.40;99.90;;;;;;5110918;28;20154;-52
2022/12/06 04:41:07;;;;;;;2.47;1.77;;;9.40;99.90;;;;;;5111447;28;20608;-52
2022/12/06 04:43:41;;;;;;;2.22;1.88;;;9.40;99.90;;;;;;5111435;28;20119;-52
2022/12/06 04:46:12;;;;;;;2.38;1.60;;;9.30;99.90;;;;;;5111397;28;20080;-53
2022/12/06 04:48:39;;;;;;;2.53;1.98;;;9.40;99.90;;;;;;5110868;28;20031;-52
2022/12/06 04:51:05;;;;;;;2.97;1.92;;;9.30;99.90;;;;;;5111128;28;20035;-55
2022/12/06 04:53:30;;;;;;;3.08;1.70;;;9.30;99.90;;;;;;5111307;28;20027;-56
2022/12/06 04:55:56;;;;;;;2.72;1.80;;;9.30;99.90;;;;;;5111263;28;20028;-56
2022/12/06 04:58:22;;;;;;;2.92;1.85;;;9.30;99.90;;;;;;5110667;28;20035;-54
2022/12/06 05:00:53;;;;;;;2.85;2.05;;;9.30;99.90;;;;;;5111312;28;20031;-51
2022/12/06 05:03:19;;;;;;;2.53;2.00;;;9.20;99.90;;;;;;5111218;28;20046;-52
2022/12/06 05:05:45;;;;;;;3.95;1.90;;;9.20;99.90;;;;;;5111447;28;20493;-52
2022/12/06 05:08:11;;;;;;;2.30;1.52;;;9.30;99.90;;;;;;5110607;28;20051;-51
2022/12/06 05:10:38;;;;;;;2.72;2.05;;;9.40;99.90;;;;;;5111347;28;20040;-52
2022/12/06 05:13:04;;;;;;;2.28;1.80;;;9.50;99.90;;;;;;5109839;28;20111;-57
2022/12/06 05:15:30;;;;;;;2.50;1.55;;;9.50;99.90;;;;;;5111222;28;20366;-51
2022/12/06 05:17:56;;;;;;;2.60;1.73;;;9.60;99.90;;;;;;5111036;28;20106;-53
2022/12/06 05:20:22;;;;;;;3.55;1.80;;;9.60;99.90;;;;;;5110998;28;20118;-51
2022/12/06 05:22:47;;;;;;;2.65;1.80;;;9.60;99.90;;;;;;5111245;28;20023;-56
2022/12/06 05:25:13;;;;;;;2.90;1.98;;;9.60;99.90;;;;;;5111148;28;20114;-56
2022/12/06 05:27:39;;;;;;;2.17;1.80;;;9.60;99.90;;;;;;5110864;28;20066;-53
2022/12/06 05:30:05;;;;;;;3.10;1.80;;;9.50;99.90;;;;;;5110580;28;20055;-53
2022/12/06 05:32:31;;;;;;;3.20;1.90;;;9.50;99.90;;;;;;5111460;28;20032;-52
2022/12/06 05:34:57;;;;;;;2.78;1.85;;;9.50;99.90;;;;;;5114223;28;20034;-51
2022/12/06 05:37:22;;;;;;;2.75;2.08;;;9.40;99.90;;;;;;5114757;28;20098;-51
2022/12/06 05:39:48;;;;;;;2.22;1.70;;;9.40;99.90;;;;;;5114024;28;20070;-52
2022/12/06 05:42:14;;;;;;;2.50;1.95;;;9.40;99.90;;;;;;5113895;28;20042;-51
2022/12/06 05:44:40;;;;;;;2.28;1.45;;;9.30;99.90;;;;;;5114699;27;20088;-55
2022/12/06 05:47:06;;;;;;;3.15;1.88;;;9.30;99.90;;;;;;5114440;28;20072;-56
2022/12/06 05:49:32;;;;;;;2.58;2.03;;;9.30;99.90;;;;;;5113919;28;20020;-55
2022/12/06 05:51:57;;;;;;;2.33;1.70;;;9.30;99.90;;;;;;5114389;28;20493;-55
2022/12/06 05:54:23;;;;;;;2.70;1.88;;;9.30;99.90;;;;;;5114837;28;20029;-55
2022/12/06 05:56:49;;;;;;;2.60;2.00;;;9.20;99.90;;;;;;5114282;28;20172;-52
2022/12/06 05:59:15;;;;;;;2.40;1.80;;;9.20;99.90;;;;;;5112488;28;20023;-52
2022/12/06 06:01:42;;;;;;;2.58;1.80;;;9.20;99.90;;;;;;5114358;28;20503;-52
2022/12/06 06:04:08;;;;;;;2.17;1.70;;;9.20;99.90;;;;;;5114127;28;20389;-51
2022/12/06 06:06:33;;;;;;;2.13;1.70;;;9.30;99.90;;;;;;5114031;28;20023;-52
2022/12/06 06:08:59;;;;;;;3.58;1.90;;;9.30;99.90;;;;;;5113600;28;20496;-53
2022/12/06 06:11:25;;;;;;;2.55;2.00;;;9.40;99.90;;;;;;5114121;28;20024;-53
2022/12/06 06:13:53;;;;;;;2.72;1.80;;;9.50;99.90;;;;;;5114324;28;20019;-51
2022/12/06 06:16:19;;;;;;;2.33;1.92;;;9.60;99.90;;;;;;5113910;28;20030;-56
2022/12/06 06:18:45;;;;;;;2.35;1.98;;;9.60;99.90;;;;;;5113546;28;20024;-55
2022/12/06 06:21:11;;;;;;;2.88;2.08;;;9.60;99.90;;;;;;5114337;27;20054;-54
2022/12/06 06:23:36;;;;;;;2.90;1.95;;;9.60;99.90;;;;;;5113884;27;20476;-52
2022/12/06 06:26:07;;;;;;;2.80;2.00;;;9.60;99.90;;;;;;5112435;28;20038;-52
2022/12/06 06:28:32;;;;;;;2.78;2.10;;;9.50;99.90;;;;;;5113305;27;20419;-51
2022/12/06 06:31:02;;;;;;;2.40;1.80;;;9.50;99.90;;;;;;5113592;28;20019;-52
2022/12/06 06:33:28;;;;;;;2.97;2.20;;;9.50;99.90;;;;;;5113719;28;20020;-51
2022/12/06 06:35:54;;;;;;;2.97;2.30;;;9.40;99.90;;;;;;5113462;28;20043;-52
2022/12/06 06:38:19;;;;;;;2.22;1.70;;;9.40;99.90;;;;;;5112859;28;20476;-53
2022/12/06 06:40:45;;;;;;;2.65;2.08;;;9.40;99.90;;;;;;5113361;28;20038;-51
2022/12/06 06:43:16;;;;;;;2.83;1.95;;;9.30;99.90;;;;;;5113530;28;20027;-52
2022/12/06 06:46:05;;;;;;;3.55;2.30;;;9.40;99.90;;;;;;5112234;28;20477;-53
2022/12/06 06:48:37;;;;;;;2.95;1.80;;;9.30;99.90;;;;;;5112628;28;20034;-52
2022/12/06 06:51:06;;;;;;;3.10;1.95;;;9.30;99.90;;;;;;5113298;28;20027;-53
2022/12/06 06:53:31;;;;;;;2.42;1.90;;;9.30;99.90;;;;;;5113273;28;20574;-56
2022/12/06 06:55:57;;;;;;;3.15;2.20;;;9.20;99.90;;;;;;5113353;28;20070;-57
2022/12/06 06:58:23;;;;;;;3.05;2.00;;;9.20;99.90;;;;;;5112557;28;20020;-52
2022/12/06 07:00:56;;;;;;;3.17;2.25;;;9.20;99.90;;;;;;5113079;28;20024;-54
2022/12/06 07:03:23;;;;;;;4.90;2.03;;;9.20;99.90;;;;;;5113234;28;20059;-57
2022/12/06 07:06:00;;;;;;;2.83;2.10;;;9.20;99.90;;;;;;5113105;28;20515;-52
2022/12/06 07:08:28;;;;;;;3.67;2.28;;;9.30;99.90;;;;;;5112534;28;20473;-52
2022/12/06 07:10:54;;;;;;;2.50;1.90;;;9.40;99.90;;;;;;5112848;28;20024;-51
2022/12/06 07:13:21;;;;;;;3.22;2.20;;;9.50;99.90;;;;;;5112777;28;20079;-52
2022/12/06 07:15:47;;;;;;;3.63;2.50;;;9.50;99.90;;;;;;5112935;27;20427;-51
2022/12/06 07:18:15;;;;;;;3.28;2.22;;;9.50;99.90;;;;;;5112113;28;20059;-55
2022/12/06 07:20:42;;;;;;;3.38;2.22;;;9.60;99.90;;;;;;5112555;28;20024;-51
2022/12/06 07:23:07;;;;;;;3.42;2.17;;;9.60;99.90;;;;;;5112729;28;20042;-55
2022/12/06 07:25:33;;;;;;;2.70;1.92;;;9.60;99.90;;;;;;5112666;28;20396;-55
2022/12/06 07:27:58;;;;;;;3.33;2.33;;;9.50;99.90;;;;;;5112087;28;20031;-52
2022/12/06 07:30:24;;;;;;;3.08;2.20;;;9.50;99.90;;;;;;5112704;28;20035;-55
2022/12/06 07:32:50;;;;;;;2.55;2.28;;;9.50;99.90;;;;;;5112525;28;20098;-55
2022/12/06 07:35:15;;;;;;;3.08;2.20;;;9.40;99.90;;;;;;5112548;28;20461;-54
2022/12/06 07:37:42;;;;;;;3.45;2.50;;;9.40;99.90;;;;;;5112181;28;20016;-51
2022/12/06 07:40:08;;;;;;;3.22;2.40;;;9.40;99.90;;;;;;5111895;28;20031;-52
2022/12/06 07:45:18;;;;;;;2.53;2.00;;;9.30;99.90;;;;;;5112391;28;20118;-51
2022/12/06 07:47:44;;;;;;;2.70;2.30;;;9.30;99.90;;;;;;5110926;28;20110;-51
2022/12/06 07:50:12;;;;;;;3.40;2.25;;;9.20;99.90;;;;;;5111758;28;20051;-51
2022/12/06 07:52:38;;;;;;;3.00;2.42;;;9.20;99.90;;;;;;5112045;28;20550;-52
2022/12/06 07:55:05;;;;;;;3.38;2.20;;;9.20;99.90;;;;;;5111991;28;20031;-51
2022/12/06 07:57:31;;;;;;;3.47;2.45;;;9.20;99.90;;;;;;5111496;28;20068;-52
2022/12/06 07:59:57;;;;;;;2.65;1.95;;;9.20;99.90;;;;;;5111577;28;20019;-54
2022/12/06 08:02:25;;;;;;;3.15;2.13;;;9.20;99.90;;;;;;5112165;28;20481;-55
2022/12/06 08:04:51;;;;;;;2.42;2.03;;;9.10;99.90;;;;;;5111799;28;20042;-52
2022/12/06 08:07:17;;;;;;;3.40;2.47;;;9.10;99.90;;;;;;5111760;28;20070;-55
2022/12/06 08:09:43;;;;;;;3.50;2.55;;;9.10;99.90;;;;;;5111221;28;20063;-56
2022/12/06 08:12:09;;;;;;;10.50;6.15;;;9.10;99.90;;;;;;5111976;27;20065;-56
2022/12/06 08:14:35;;;;;;;10.15;6.80;;;9.10;99.90;;;;;;5111738;28;20011;-55
2022/12/06 08:17:02;;;;;;;8.63;6.00;;;8.90;99.90;;;;;;5111605;28;20385;-55
2022/12/06 08:19:28;;;;;;;8.38;5.88;;;8.80;99.90;;;;;;5111079;28;20374;-55
2022/12/06 08:21:54;;;;;;;8.82;5.68;;;8.70;99.90;;;;;;5111638;28;20180;-54
2022/12/06 08:24:20;;;;;;;6.82;5.40;;;8.70;99.90;;;;;;5111713;28;20103;-56
2022/12/06 08:26:46;;;;;;;5.78;4.95;;;8.70;99.90;;;;;;5111836;28;20464;-53
2022/12/06 08:29:11;;;;;;;7.40;5.30;;;8.70;99.90;;;;;;5111066;28;20023;-53
2022/12/06 08:31:38;;;;;;;12.65;5.15;;;8.70;99.90;;;;;;5111423;28;20438;-54
2022/12/06 08:34:03;;;;;;;6.82;5.40;;;8.70;99.90;;;;;;5111508;28;20023;-54
2022/12/06 08:36:29;;;;;;;6.88;4.85;;;8.70;99.90;;;;;;5111527;28;20038;-58
2022/12/06 08:38:57;;;;;;;6.97;4.95;;;8.70;99.90;;;;;;5111132;28;20036;-56
2022/12/06 08:44:10;;;;;;;6.15;4.60;;;8.70;99.90;;;;;;5111390;28;20157;-56
2022/12/06 08:46:36;;;;;;;6.65;4.55;;;8.70;99.90;;;;;;5111337;28;20504;-56
2022/12/06 08:49:02;;;;;;;5.57;4.47;;;8.70;99.90;;;;;;5110865;28;20028;-55
2022/12/06 08:51:29;;;;;;;6.55;4.38;;;8.70;99.90;;;;;;5111334;28;20044;-52
2022/12/06 08:53:56;;;;;;;5.95;4.78;;;8.70;99.90;;;;;;5111315;28;20534;-55
2022/12/06 08:56:22;;;;;;;7.25;4.65;;;8.70;99.90;;;;;;5111026;28;20484;-55
2022/12/06 08:58:49;;;;;;;6.07;4.43;;;8.70;99.90;;;;;;5110785;28;20024;-57
2022/12/06 09:01:20;;;;;;;5.85;4.20;;;8.70;99.90;;;;;;5111235;28;20030;-53
2022/12/06 09:03:46;;;;;;;5.45;4.10;;;8.70;99.90;;;;;;5111590;28;20376;-54
2022/12/06 09:06:13;;;;;;;5.50;4.20;;;8.70;99.90;;;;;;5111161;28;20085;-57
2022/12/06 09:08:38;;;;;;;5.85;4.05;;;8.70;99.90;;;;;;5112345;28;20081;-57
2022/12/06 09:11:06;;;;;;;6.60;4.03;;;8.70;99.90;;;;;;5115002;28;20023;-56
2022/12/06 09:13:33;;;;;;;5.28;4.20;;;8.70;99.90;;;;;;5115164;28;20020;-54
2022/12/06 09:15:58;;;;;;;5.50;4.20;;;8.70;99.90;;;;;;5115079;28;20046;-56
2022/12/06 09:18:24;;;;;;;5.72;3.80;;;8.80;99.90;;;;;;5114493;28;20469;-54
2022/12/06 09:20:50;;;;;;;4.50;3.97;;;8.80;99.90;;;;;;5115026;28;20104;-53
2022/12/06 09:23:15;;;;;;;4.90;3.70;;;8.80;99.90;;;;;;5114921;28;20027;-56
2022/12/06 09:25:41;;;;;;;6.93;4.50;;;8.80;99.90;;;;;;5114822;28;20576;-57
2022/12/06 09:28:07;;;;;;;4.63;3.60;;;8.80;99.90;;;;;;5114259;28;20027;-56
2022/12/06 09:30:33;;;;;;;5.30;3.70;;;8.70;99.90;;;;;;5114689;28;20512;-56
2022/12/06 09:32:58;;;;;;;5.22;3.78;;;8.70;99.90;;;;;;5114830;28;20034;-53
2022/12/06 09:35:24;;;;;;;4.75;3.60;;;8.70;99.90;;;;;;5114905;28;20404;-55
2022/12/06 09:37:50;;;;;;;5.57;3.90;;;8.80;99.90;;;;;;5114382;27;20031;-55
2022/12/06 09:41:02;;;;;;;6.97;3.97;;;8.80;99.90;;;;;;5114168;28;20488;-56
2022/12/06 09:43:52;;;;;;;4.13;3.40;;;8.80;99.90;;;;;;5113154;28;20085;-53
2022/12/06 09:46:38;;;;;;;5.38;3.67;;;9.00;99.90;;;;;;5114409;28;20035;-56
2022/12/06 09:49:26;;;;;;;4.18;3.22;;;9.10;99.90;;;;;;5114038;28;20456;-57
2022/12/06 09:52:27;;;;;;;4.28;3.40;;;9.10;99.90;;;;;;5114493;28;20027;-52
2022/12/06 09:55:24;;;;;;;4.25;3.33;;;9.20;99.90;;;;;;5114369;28;20029;-57
2022/12/06 09:58:20;;;;;;;4.50;3.50;;;9.20;99.90;;;;;;5114022;28;20019;-53
2022/12/06 10:00:57;;;;;;;4.38;3.30;;;9.30;99.90;;;;;;5114214;28;20034;-53
2022/12/06 10:03:31;;;;;;;4.40;3.47;;;9.30;99.90;;;;;;5114282;28;20020;-54
2022/12/06 10:06:07;;;;;;;4.45;3.40;;;9.30;99.90;;;;;;5114164;28;20027;-57
2022/12/06 10:09:10;;;;;;;5.20;3.33;;;9.20;99.90;;;;;;5113567;28;20089;-57
2022/12/06 10:11:54;;;;;;;4.80;3.17;;;9.20;99.90;;;;;;5114378;28;20484;-56
2022/12/06 10:14:20;;;;;;;4.47;3.13;;;9.20;99.90;;;;;;5114037;27;20051;-54
2022/12/06 10:16:57;;;;;;;4.10;3.05;;;9.20;99.90;;;;;;5113879;28;20051;-53
2022/12/06 10:19:53;;;;;;;4.75;3.60;;;9.10;99.90;;;;;;5113138;28;20016;-54
2022/12/06 10:22:48;;;;;;;4.15;3.22;;;9.10;99.90;;;;;;5113946;27;20060;-55
2022/12/06 10:25:23;;;;;;;5.60;3.42;;;9.10;99.90;;;;;;5113818;28;20036;-56
2022/12/06 10:28:06;;;;;;;3.83;3.17;;;9.10;99.90;;;;;;5113455;28;20024;-55
2022/12/06 10:30:35;;;;;;;3.95;3.03;;;9.00;99.90;;;;;;5113736;28;20024;-58
2022/12/06 10:33:11;;;;;;;4.80;3.00;;;9.00;99.90;;;;;;5113574;28;20023;-53
2022/12/06 10:35:48;;;;;;;4.28;3.42;;;9.00;99.90;;;;;;5113594;27;20054;-56
2022/12/06 10:38:34;;;;;;;4.35;3.30;;;9.00;99.90;;;;;;5112982;28;20027;-58
2022/12/06 10:41:12;;;;;;;4.18;3.20;;;9.00;99.90;;;;;;5113440;28;20043;-55
2022/12/06 10:43:50;;;;;;;3.72;2.90;;;9.00;99.90;;;;;;5113438;28;20103;-58
2022/12/06 10:49:40;;;;;;;4.47;3.10;;;9.00;99.90;;;;;;5112827;28;20118;-54
2022/12/06 10:52:34;;;;;;;3.88;2.80;;;8.90;99.90;;;;;;5113634;28;20110;-55
2022/12/06 10:55:09;;;;;;;4.93;3.55;;;8.90;99.90;;;;;;5113269;28;20023;-55
2022/12/06 10:57:46;;;;;;;4.35;3.33;;;8.90;99.90;;;;;;5113247;27;20030;-57
2022/12/06 11:00:16;;;;;;;4.38;3.30;;;8.90;99.90;;;;;;5111474;28;20080;-57
2022/12/06 11:02:56;;;;;;;5.13;3.60;;;8.90;99.90;;;;;;5113243;27;20476;-52
2022/12/06 11:05:35;;;;;;;4.90;3.50;;;8.90;99.90;;;;;;5113257;28;20150;-55
2022/12/06 11:08:11;;;;;;;4.57;3.17;;;8.90;99.90;;;;;;5112591;28;20023;-57
2022/12/06 11:10:39;;;;;;;4.55;3.58;;;8.90;99.90;;;;;;5112968;28;20023;-54
2022/12/06 11:13:19;;;;;;;4.53;3.20;;;8.90;99.90;;;;;;5112894;28;20027;-56
2022/12/06 11:15:58;;;;;;;4.97;3.50;;;8.90;99.90;;;;;;5113439;28;20449;-54
2022/12/06 11:18:28;;;;;;;4.22;3.05;;;8.80;99.90;;;;;;5112243;28;20164;-56
2022/12/06 11:21:18;;;;;;;4.60;3.30;;;8.90;99.90;;;;;;5112736;28;20024;-58
2022/12/06 11:24:19;;;;;;;3.70;3.00;;;8.80;99.90;;;;;;5112687;28;20029;-58
2022/12/06 11:26:56;;;;;;;5.25;3.40;;;8.90;99.90;;;;;;5104945;28;20401;-56
2022/12/06 11:29:21;;;;;;;4.82;3.40;;;8.80;99.90;;;;;;5112196;27;20044;-54
2022/12/06 11:32:01;;;;;;;5.20;3.40;;;8.80;99.90;;;;;;5111743;28;20138;-57
2022/12/06 11:34:56;;;;;;;4.22;3.35;;;8.80;99.90;;;;;;5112428;28;20019;-53
2022/12/06 11:37:23;;;;;;;;;;;8.80;99.90;;;;;;5112717;28;20143;-53
2022/12/06 11:40:04;;;;;;;5.03;3.58;;;8.90;99.90;;;;;;5111725;28;19916;-55
2022/12/06 11:42:30;;;;;;;3.70;3.05;;;8.80;99.90;;;;;;5112295;28;20027;-55
2022/12/06 11:45:24;;;;;;;6.47;4.10;;;8.80;99.90;;;;;;5112222;28;20438;-55
2022/12/06 11:47:55;;;;;;;4.75;3.63;;;8.80;99.90;;;;;;5112156;28;20438;-56
2022/12/06 11:50:22;;;;;;;5.65;3.47;;;8.80;99.90;;;;;;5111913;28;20024;-57
2022/12/06 11:52:51;;;;;;;4.85;3.47;;;8.80;99.90;;;;;;5112234;28;20038;-55
2022/12/06 11:55:19;;;;;;;5.10;3.63;;;8.80;99.90;;;;;;5112095;27;20024;-57
2022/12/06 11:58:02;;;;;;;4.32;3.70;;;8.90;99.90;;;;;;5111611;28;20027;-59
2022/12/06 12:00:29;;;;;;;4.68;3.20;;;8.80;99.90;;;;;;5111990;27;20111;-57
2022/12/06 12:02:56;;;;;;;4.45;3.22;;;8.80;99.90;;;;;;5111993;28;20030;-54
2022/12/06 12:05:29;;;;;;;4.32;3.35;;;8.80;99.90;;;;;;5110575;28;20023;-55
2022/12/06 12:08:03;;;;;;;5.03;3.40;;;8.80;99.90;;;;;;5110127;28;20030;-54
2022/12/06 12:10:39;;;;;;;3.95;3.33;;;8.80;99.90;;;;;;5111762;28;20070;-52
2022/12/06 12:13:44;;;;;;;3.67;2.88;;;8.80;99.90;;;;;;5111842;28;20031;-56
2022/12/06 12:16:31;;;;;;;4.45;3.38;;;8.80;99.90;;;;;;5111732;28;20027;-57
2022/12/06 12:18:59;;;;;;;5.45;3.55;;;8.90;99.90;;;;;;5111229;28;20103;-56
2022/12/06 12:21:47;;;;;;;4.72;3.13;;;8.80;99.90;;;;;;5111450;28;20038;-54
2022/12/06 12:24:44;;;;;;;5.28;3.28;;;8.80;99.90;;;;;;5111659;28;20055;-55
2022/12/06 12:27:41;;;;;;;4.22;3.28;;;8.80;99.90;;;;;;5111462;28;20031;-56
2022/12/06 12:30:31;;;;;;;5.18;3.13;;;8.80;99.90;;;;;;5111106;28;20538;-52
2022/12/06 12:33:06;;;;;;;5.20;3.58;;;8.80;99.90;;;;;;5111357;28;20031;-53
2022/12/06 12:35:41;;;;;;;4.60;3.22;;;8.80;99.90;;;;;;5111485;28;20022;-55
2022/12/06 12:38:09;;;;;;;5.38;3.20;;;8.80;99.90;;;;;;5110922;28;20031;-55
2022/12/06 12:40:57;;;;;;;5.53;3.17;;;8.80;99.90;;;;;;5111323;28;20081;-55
2022/12/06 12:43:30;;;;;;;4.93;3.42;;;8.80;99.90;;;;;;5114107;28;20023;-57
2022/12/06 12:46:09;;;;;;;4.43;3.40;;;8.80;99.90;;;;;;5115900;28;20052;-55
2022/12/06 12:48:41;;;;;;;3.97;3.03;;;8.80;99.90;;;;;;5113954;28;20300;-53
2022/12/06 12:51:32;;;;;;;4.05;3.00;;;8.80;99.90;;;;;;5115676;28;20492;-54
2022/12/06 12:54:02;;;;;;;4.45;2.90;;;8.80;99.90;;;;;;5116010;28;20028;-56
2022/12/06 12:56:31;;;;;;;3.88;2.95;;;8.80;99.90;;;;;;5115422;28;20059;-56
2022/12/06 12:58:57;;;;;;;3.78;2.90;;;8.80;99.90;;;;;;5114958;28;20020;-58
2022/12/06 13:01:22;;;;;;;5.03;3.38;;;8.80;99.90;;;;;;5115434;28;20080;-57
2022/12/06 13:04:09;;;;;;;5.00;2.83;;;8.80;99.90;;;;;;5115417;28;20078;-56
2022/12/06 13:07:01;;;;;;;3.65;2.90;;;8.80;99.90;;;;;;5093278;28;20035;-53
2022/12/06 13:09:53;;;;;;;4.22;2.80;;;8.80;99.90;;;;;;5114842;28;20023;-55
2022/12/06 13:12:40;;;;;;;3.67;2.78;;;8.80;99.90;;;;;;5096370;28;20042;-54
2022/12/06 13:15:18;;;;;;;3.58;2.60;;;8.80;99.90;;;;;;5115243;28;20027;-56
2022/12/06 13:17:48;;;;;;;4.45;3.00;;;8.80;99.90;;;;;;5114953;28;20028;-57
2022/12/06 13:20:27;;;;;;;3.38;2.70;;;8.80;99.90;;;;;;5114896;28;20035;-55
2022/12/06 13:23:24;;;;;;;3.53;2.70;;;8.80;99.90;;;;;;5115024;28;20019;-56
2022/12/06 13:26:10;;;;;;;3.88;2.55;;;8.80;99.90;;;;;;5104840;28;20035;-54
2022/12/06 13:28:42;;;;;;;3.50;2.83;;;8.80;99.90;;;;;;5114500;28;20027;-53
2022/12/06 13:31:18;;;;;;;4.22;2.78;;;8.80;99.90;;;;;;5114956;28;20111;-56
2022/12/06 13:34:25;;;;;;;3.65;2.65;;;8.80;99.90;;;;;;5114941;28;20024;-58
2022/12/06 13:36:51;;;;;;;3.13;2.50;;;8.80;99.90;;;;;;5114732;27;20048;-57
2022/12/06 13:39:32;;;;;;;2.67;2.30;;;8.80;99.90;;;;;;5114141;28;20512;-55
2022/12/06 13:42:17;;;;;;;2.78;2.10;;;8.80;99.90;;;;;;5115111;28;20077;-57
2022/12/06 13:44:49;;;;;;;3.70;2.40;;;8.80;99.90;;;;;;5114718;28;20081;-53
2022/12/06 13:47:26;;;;;;;3.13;2.40;;;8.80;99.90;;;;;;5114889;28;20427;-56
2022/12/06 13:50:02;;;;;;;2.50;1.90;;;8.80;99.90;;;;;;5114062;28;20035;-57
2022/12/06 13:52:46;;;;;;;2.63;2.03;;;8.80;99.90;;;;;;5114567;28;20019;-54
2022/12/06 13:55:23;;;;;;;3.42;2.17;;;8.80;99.90;;;;;;5112350;28;20380;-54
2022/12/06 13:57:55;;;;;;;2.92;2.05;;;8.80;99.90;;;;;;5114063;27;20026;-53
2022/12/06 14:00:27;;;;;;;3.13;2.50;;;8.80;99.90;;;;;;5114184;28;20040;-58
2022/12/06 14:02:57;;;;;;;3.30;2.13;;;8.80;99.90;;;;;;5114244;27;20035;-54
2022/12/06 14:06:01;;;;;;;4.10;2.35;;;8.80;99.90;;;;;;5114220;28;20156;-55
2022/12/06 14:08:36;;;;;;;2.80;2.25;;;8.80;99.90;;;;;;5113678;28;20038;-57
2022/12/06 14:11:15;;;;;;;2.75;2.10;;;8.80;99.90;;;;;;5113971;28;20073;-52
2022/12/06 14:13:44;;;;;;;3.25;2.28;;;8.80;99.90;;;;;;5114103;28;20429;-54
2022/12/06 14:16:23;;;;;;;2.42;1.88;;;8.80;99.90;;;;;;5113980;28;20405;-57
2022/12/06 14:18:50;;;;;;;3.30;2.10;;;8.80;99.90;;;;;;5113455;28;20027;-56
2022/12/06 14:21:29;;;;;;;2.45;1.73;;;8.80;99.90;;;;;;5113833;28;20027;-57
2022/12/06 14:23:55;;;;;;;3.40;2.00;;;8.80;99.90;;;;;;5112446;28;20118;-57
2022/12/06 14:26:25;;;;;;;2.17;1.60;;;8.80;99.90;;;;;;5113770;28;20103;-54
2022/12/06 14:28:53;;;;;;;2.55;1.95;;;8.80;99.90;;;;;;5113253;28;20032;-52
2022/12/06 14:31:21;;;;;;;2.42;1.85;;;8.80;99.90;;;;;;5113672;28;20552;-52
2022/12/06 14:33:47;;;;;;;1.95;1.55;;;8.80;99.90;;;;;;5113672;28;20102;-52
2022/12/06 14:36:20;;;;;;;2.55;1.55;;;8.80;99.90;;;;;;5113593;28;20442;-55
2022/12/06 14:38:57;;;;;;;2.05;1.77;;;8.80;99.90;;;;;;5113246;27;20695;-53
2022/12/06 14:44:17;;;;;;;2.50;1.70;;;8.80;99.90;;;;;;5113687;28;20030;-52
2022/12/06 14:46:46;;;;;;;2.40;1.75;;;8.80;99.90;;;;;;5113492;28;20808;-54
2022/12/06 14:52:01;;;;;;;2.85;1.92;;;8.80;99.90;;;;;;5113630;28;20031;-53
2022/12/06 14:54:26;;;;;;;2.30;1.77;;;8.80;99.90;;;;;;5113251;28;20020;-57
2022/12/06 14:56:52;;;;;;;2.78;2.05;;;8.80;99.90;;;;;;5113040;28;20024;-53
2022/12/06 14:59:22;;;;;;;2.63;1.92;;;8.80;99.90;;;;;;5112657;28;20030;-53
2022/12/06 15:01:53;;;;;;;2.25;1.65;;;8.80;99.90;;;;;;5113162;28;20111;-56
2022/12/06 15:04:37;;;;;;;2.72;1.92;;;8.80;99.90;;;;;;5113146;28;20028;-53
2022/12/06 15:07:03;;;;;;;2.58;1.92;;;8.80;99.90;;;;;;5112051;27;20081;-52
2022/12/06 15:09:30;;;;;;;3.10;1.88;;;8.70;99.90;;;;;;5112443;28;20032;-54
2022/12/06 15:15:04;;;;;;;2.45;1.88;;;8.80;99.90;;;;;;5112906;28;20023;-55
2022/12/06 15:17:30;;;;;;;3.22;2.08;;;8.80;99.90;;;;;;5112596;28;20038;-56
2022/12/06 15:19:56;;;;;;;1.85;1.40;;;8.80;99.90;;;;;;5111047;28;20019;-54
2022/12/06 15:22:27;;;;;;;2.67;1.83;;;8.80;99.90;;;;;;5112720;28;20495;-58
2022/12/06 15:24:56;;;;;;;2.42;1.65;;;8.70;99.90;;;;;;5112712;28;20016;-57